Willow City, TX

7:55 PM CDT on April 27, 2015 (GMT -0500)
KNOPP SCHOOL RD | | Change Station
CLOSE
Current Station
Personal Weather Station
Location: Fredericksburg, TX
Elevation: 1752 ft
Nearby Weather Stations

Elev 1752 ft 30.33 °N, 98.80 °W | Updated 3 minutes ago

Clear
Clear
72.0 °F
Feels Like 77 °F
N
0.0
Wind Variable Wind from NE

Today
High -- | Low -- °F
--% Chance of Precip.
Yesterday
High -- | Low -- °F
Precip. -- in
6:55 AM 8:10 PM
Waxing Gibbous, 69% visible
Pressure 29.76 in
Visibility 10.0 miles
Clouds Clear
Heat Index 77 °F
Dew Point 52 °F
Humidity 49%
Rainfall 0.65 in
Snow Depth Not available.
UV 0 out of 12
Pollen 7.10 out of 12
Air Quality Not available.
Flu Activity Local Activity
METAR KT82 280035Z AUTO 02003KT 10SM CLR 23/12 A2976 RMK AO2 T02280117

More Conditions Fewer Conditions

Pressure 29.76 in
Visibility 10.0 miles
Clouds Clear
Heat Index 77 °F
Dew Point 52 °F
Humidity 49%
Rainfall 0.65 in
Snow Depth Not available.
UV 0 out of 12
Pollen 7.10 out of 12
Air Quality Not available.
Flu Activity Local Activity
METAR KT82 280035Z AUTO 02003KT 10SM CLR 23/12 A2976 RMK AO2 T02280117

More Conditions Fewer Conditions

10-Day Weather Forecast

Almanac

Astronomy

Apr. 27, 2015 Rise Set
Actual Time
Civil Twilight
Nautical Twilight
Astronomical Twilight
Moon
Length of Visible Light
Length of Day
Tomorrow will be .
, % of the Moon is Illuminated

Today's Extremes

State Highs State Lows

Community

WunderPhotos

Upload Photos

1,817,497 photos uploaded!

WunderBlogs® & News

Nearby

Air Quality

  Air Quality AQ Index Pollutant
Not available.

Snow Depth

Station Depth Elevation

Earthquake Activity

City Distance Mag. Time & Date
Minimum magnitude displayed is 2.5.

Coastal Water Temperatures

Place Temperature

Stations

Nearby Weather Stations

Station Location Temp. Windchill Dew Point Humidity Wind Precip. Elev Updated Type